Wood, Pennsylvania
Current Conditions -  °F | °C
As of 9:09 PM on Wednesday 26 Nov 2014 (Local Time) from KAOO Reporting Station
Haze Haze  
Wind Chill: 27°   Ceiling: 1200
Heat Index: 32°   Visibility: 6mi
Dew Point: 31°   Wind: 5mph
Humidity: 96%   Direction: 40°NE
Pressure: 29.95"   Gusts: NA
Location:  40.17°N, 78.14°W
Report Text: KAOO 270209Z AUTO 04004KT 6SM BR OVC012 00/M01 A2995 RMK AO2 T00001006
Loading
Personal Weather Stations






























Interactive Weather Map New forecast layout! Learn more

10-Day Weather Forecast

Advertisements
Track Severe Weather on mobile